Time;durP1;ratioP1;P1;durP2;ratioP2;P2;SDS_P1;SDS_P2;PMS_P1;PMS_P2;Temp;Humidity;BMP_temperature;BMP_pressure;BME280_temperature;BME280_humidity;BME280_pressure;Samples;Min_cycle;Max_cycle;Signal;HPM_P1;HPM_P2
2022/06/08 00:01:31;;;;;;;5.43;4.20;;;;;;;11.83;100.00;96112.28;5069723;28;20833;-76
2022/06/08 00:04:01;;;;;;;7.47;3.60;;;;;;;11.88;100.00;96124.50;5071042;28;20473;-76
2022/06/08 00:06:27;;;;;;;3.83;3.53;;;;;;;12.17;100.00;96131.34;5071024;28;20432;-76
2022/06/08 00:08:54;;;;;;;9.10;3.77;;;;;;;12.09;100.00;96114.47;5078623;28;21001;-76
2022/06/08 00:11:21;;;;;;;6.97;4.47;;;;;;;11.77;100.00;96113.63;5075350;28;20466;-76
2022/06/08 00:13:48;;;;;;;8.80;3.70;;;;;;;11.86;100.00;96124.84;5071004;28;20544;-76
2022/06/08 00:16:17;;;;;;;6.03;3.03;;;;;;;11.76;100.00;96098.84;5070949;28;20435;-76
2022/06/08 00:18:44;;;;;;;4.63;3.10;;;;;;;12.07;100.00;96133.38;5069475;28;20421;-76
2022/06/08 00:21:13;;;;;;;5.20;2.90;;;;;;;11.81;100.00;96098.63;5069701;28;20506;-76
2022/06/08 00:23:41;;;;;;;5.10;3.60;;;;;;;11.62;100.00;96109.84;5075992;28;20467;-76
2022/06/08 00:26:08;;;;;;;4.87;4.00;;;;;;;11.57;100.00;96088.88;5076420;28;20498;-76
2022/06/08 00:28:35;;;;;;;6.83;3.50;;;;;;;11.19;100.00;96065.53;5056071;28;20511;-76
2022/06/08 00:31:03;;;;;;;5.10;3.50;;;;;;;11.45;100.00;96075.69;5054977;28;20436;-76
2022/06/08 00:33:31;;;;;;;5.83;3.30;;;;;;;11.74;100.00;96099.16;5064302;28;20517;-76
2022/06/08 00:35:58;;;;;;;5.67;3.10;;;;;;;11.72;100.00;96069.59;5079646;28;20807;-76
2022/06/08 00:38:26;;;;;;;5.50;3.33;;;;;;;11.73;100.00;96086.25;5073650;28;20432;-76
2022/06/08 00:40:56;;;;;;;4.47;4.00;;;;;;;11.89;100.00;96108.31;5074431;28;20782;-76
2022/06/08 00:43:24;;;;;;;12.07;3.57;;;;;;;11.94;100.00;96107.28;5085658;28;20452;-76
2022/06/08 00:45:51;;;;;;;3.50;3.00;;;;;;;11.79;100.00;96077.78;5074694;28;20452;-76
2022/06/08 00:48:18;;;;;;;4.90;3.10;;;;;;;11.44;100.00;96061.69;5090176;28;21007;-76
2022/06/08 00:50:49;;;;;;;4.90;3.23;;;;;;;11.49;100.00;96103.06;5073379;28;20424;-76
2022/06/08 00:53:30;;;;;;;6.73;3.00;;;;;;;11.38;100.00;96113.34;5090155;28;20456;-76
2022/06/08 00:56:01;;;;;;;4.57;4.17;;;;;;;11.57;100.00;96110.06;5073200;28;20448;-76
2022/06/08 00:58:31;;;;;;;8.30;4.00;;;;;;;11.43;100.00;96102.50;5090261;28;20432;-76
2022/06/08 01:00:59;;;;;;;4.83;3.80;;;;;;;11.14;100.00;96042.72;5073059;28;20994;-75
2022/06/08 01:03:27;;;;;;;5.07;3.93;;;;;;;11.59;100.00;96083.25;5072992;28;20460;-76
2022/06/08 01:06:14;;;;;;;3.70;2.80;;;;;;;11.77;100.00;96087.91;5053803;28;20441;-76
2022/06/08 01:08:51;;;;;;;6.20;2.87;;;;;;;11.71;100.00;96091.13;5069057;28;20488;-76
2022/06/08 01:11:51;;;;;;;4.93;3.90;;;;;;;11.37;100.00;96081.91;5072996;28;20439;-76
2022/06/08 01:14:19;;;;;;;2.97;2.73;;;;;;;11.61;100.00;96083.66;5054746;28;20470;-76
2022/06/08 01:17:15;;;;;;;3.80;2.90;;;;;;;11.53;100.00;96072.13;5056270;28;20497;-76
2022/06/08 01:19:46;;;;;;;3.53;3.00;;;;;;;11.42;100.00;96036.66;5070991;28;20827;-76
2022/06/08 01:22:19;;;;;;;4.57;2.73;;;;;;;11.81;100.00;96083.50;5073286;28;20539;-76
2022/06/08 01:24:53;;;;;;;4.10;3.23;;;;;;;11.52;100.00;96089.13;5072602;28;21021;-76
2022/06/08 01:28:21;;;;;;;3.83;3.40;;;;;;;11.11;100.00;96087.63;5072796;28;20486;-76
2022/06/08 01:30:56;;;;;;;8.80;4.80;;;;;;;10.73;100.00;96053.63;5064029;28;20854;-76
2022/06/08 01:34:20;;;;;;;4.47;4.07;;;;;;;10.78;100.00;96085.13;5072695;28;20460;-77
2022/06/08 01:36:50;;;;;;;3.00;2.80;;;;;;;11.05;100.00;96067.78;5022827;28;20477;-77
2022/06/08 01:40:05;;;;;;;3.40;2.90;;;;;;;11.05;100.00;96059.84;5005180;28;20438;-77
2022/06/08 01:42:43;;;;;;;3.67;3.30;;;;;;;10.97;100.00;96066.03;4992531;28;20954;-77
2022/06/08 01:45:33;;;;;;;4.70;4.00;;;;;;;10.99;100.00;96063.84;5007990;28;20487;-77
2022/06/08 01:48:27;;;;;;;7.23;4.20;;;;;;;11.08;100.00;96059.94;5025036;28;20458;-77
2022/06/08 01:51:21;;;;;;;4.57;3.93;;;;;;;11.22;100.00;96056.94;5038046;28;20997;-77
2022/06/08 01:54:05;;;;;;;6.40;5.17;;;;;;;10.92;100.00;96033.41;5020791;28;20837;-77
2022/06/08 01:56:33;;;;;;;4.43;4.00;;;;;;;11.00;100.00;96047.63;5008452;28;20444;-77
2022/06/08 01:59:13;;;;;;;5.43;4.40;;;;;;;10.90;100.00;96026.94;5034374;28;20438;-77
2022/06/08 02:01:52;;;;;;;6.80;4.53;;;;;;;10.98;100.00;96044.53;5022759;28;20805;-77
2022/06/08 02:04:43;;;;;;;5.00;4.53;;;;;;;10.89;100.00;96009.53;5038262;28;20468;-77
2022/06/08 02:07:30;;;;;;;8.13;6.13;;;;;;;10.49;100.00;96044.63;5051918;28;20432;-78
2022/06/08 02:10:19;;;;;;;12.40;7.17;;;;;;;10.47;100.00;96033.63;5068940;28;20486;-77
2022/06/08 02:12:54;;;;;;;7.30;6.37;;;;;;;10.64;100.00;96025.44;5061444;28;20478;-77
2022/06/08 02:15:33;;;;;;;7.80;5.10;;;;;;;10.64;100.00;96028.09;5071969;28;20439;-77
2022/06/08 02:18:09;;;;;;;15.77;6.83;;;;;;;10.98;100.00;96043.78;5071891;28;20815;-77
2022/06/08 02:20:48;;;;;;;8.60;5.10;;;;;;;10.78;100.00;96040.94;5083767;28;20458;-75
2022/06/08 02:23:41;;;;;;;9.77;5.97;;;;;;;10.36;100.00;96032.53;5089665;28;20499;-75
2022/06/08 02:26:14;;;;;;;7.03;5.20;;;;;;;9.96;100.00;96003.31;5071967;28;20464;-75
2022/06/08 02:28:57;;;;;;;5.20;4.70;;;;;;;9.98;100.00;96028.31;5055430;28;20885;-78
2022/06/08 02:31:35;;;;;;;4.30;4.00;;;;;;;9.95;100.00;96007.06;5072007;28;20929;-77
2022/06/08 02:34:29;;;;;;;5.40;4.40;;;;;;;10.46;100.00;96033.97;5072076;28;20464;-78
2022/06/08 02:37:12;;;;;;;5.20;4.50;;;;;;;10.38;100.00;96013.69;5060926;28;20447;-77
2022/06/08 02:39:55;;;;;;;5.07;3.77;;;;;;;10.31;100.00;96001.06;5072276;28;20428;-77
2022/06/08 02:42:28;;;;;;;3.50;3.30;;;;;;;10.59;100.00;96033.59;5071831;28;20448;-77
2022/06/08 02:45:06;;;;;;;6.80;4.73;;;;;;;10.17;100.00;95980.22;5072346;28;20483;-77
2022/06/08 02:47:36;;;;;;;4.03;3.30;;;;;;;10.39;100.00;96009.94;5071790;28;20536;-78
2022/06/08 02:50:12;;;;;;;6.10;3.40;;;;;;;10.70;100.00;96033.16;5082439;28;20463;-78
2022/06/08 02:52:45;;;;;;;3.60;3.27;;;;;;;10.55;100.00;96031.94;5072737;28;20436;-78
2022/06/08 02:55:34;;;;;;;4.00;3.70;;;;;;;10.72;100.00;96031.72;5070984;28;20428;-78
2022/06/08 02:58:27;;;;;;;3.20;3.00;;;;;;;10.53;100.00;96020.94;5060781;28;20436;-75
2022/06/08 03:01:01;;;;;;;3.60;2.87;;;;;;;10.50;100.00;96008.41;5070784;28;20505;-75
2022/06/08 03:03:38;;;;;;;4.00;3.70;;;;;;;10.52;100.00;96020.16;5072457;28;20460;-78
2022/06/08 03:06:14;;;;;;;4.60;3.43;;;;;;;10.45;100.00;96041.13;5091027;28;20919;-75
2022/06/08 03:08:49;;;;;;;4.43;3.30;;;;;;;10.53;100.00;96031.50;5057849;28;20464;-75
2022/06/08 03:11:17;;;;;;;6.07;3.43;;;;;;;10.52;100.00;96000.91;5071067;28;20444;-78
2022/06/08 03:14:01;;;;;;;5.00;4.50;;;;;;;10.56;100.00;96038.78;5054786;28;20861;-77
2022/06/08 03:16:52;;;;;;;3.03;2.73;;;;;;;10.44;100.00;96038.81;5071040;28;20436;-77
2022/06/08 03:19:19;;;;;;;4.00;3.67;;;;;;;10.34;100.00;95998.50;5070833;28;20828;-77
2022/06/08 03:21:47;;;;;;;3.77;3.47;;;;;;;10.54;100.00;96046.25;5071411;28;21033;-78
2022/06/08 03:24:14;;;;;;;7.63;3.47;;;;;;;10.45;100.00;96040.34;5070529;28;20455;-77
2022/06/08 03:26:50;;;;;;;5.30;3.50;;;;;;;10.57;100.00;96032.41;5070675;28;20445;-75
2022/06/08 03:29:17;;;;;;;4.50;3.67;;;;;;;10.62;100.00;96040.88;5053987;28;20464;-75
2022/06/08 03:31:45;;;;;;;4.00;3.60;;;;;;;10.62;100.00;96038.22;5054032;28;20444;-75
2022/06/08 03:34:13;;;;;;;16.33;4.10;;;;;;;10.27;100.00;96043.19;5053750;28;20842;-75
2022/06/08 03:36:40;;;;;;;4.00;3.73;;;;;;;10.16;100.00;96018.31;5087058;28;20535;-77
2022/06/08 03:39:09;;;;;;;4.37;3.97;;;;;;;9.99;100.00;96007.94;5070133;28;21006;-78
2022/06/08 03:41:37;;;;;;;3.60;3.30;;;;;;;9.80;100.00;96000.56;5056853;28;20442;-77
2022/06/08 03:44:05;;;;;;;4.20;3.80;;;;;;;10.38;100.00;96056.75;5071406;28;20444;-78
2022/06/08 03:46:38;;;;;;;5.23;3.70;;;;;;;9.99;100.00;96039.63;5057042;28;20440;-75
2022/06/08 03:49:07;;;;;;;4.43;3.90;;;;;;;10.30;100.00;96057.66;5069892;28;20557;-75
2022/06/08 03:51:35;;;;;;;3.83;3.00;;;;;;;10.19;100.00;96059.16;5070070;28;20440;-75
2022/06/08 03:54:09;;;;;;;4.03;3.70;;;;;;;9.99;100.00;96056.25;5071503;28;20457;-75
2022/06/08 03:56:38;;;;;;;3.53;3.10;;;;;;;10.23;100.00;96052.91;5053383;28;20429;-75
2022/06/08 03:59:05;;;;;;;4.37;3.43;;;;;;;10.33;100.00;96062.25;5069935;28;20468;-75
2022/06/08 04:01:33;;;;;;;5.03;3.23;;;;;;;9.95;100.00;96012.34;5086647;28;20445;-75
2022/06/08 04:04:01;;;;;;;3.80;3.50;;;;;;;9.67;100.00;96010.34;5069733;28;20550;-75
2022/06/08 04:06:30;;;;;;;3.07;2.87;;;;;;;10.14;100.00;96054.84;5052954;28;20969;-75
2022/06/08 04:08:58;;;;;;;4.20;3.60;;;;;;;9.99;100.00;96015.88;5069656;28;20555;-74
2022/06/08 04:11:26;;;;;;;4.40;3.50;;;;;;;10.38;100.00;96034.84;5069739;28;20989;-75
2022/06/08 04:13:59;;;;;;;3.43;3.13;;;;;;;10.53;100.00;96042.84;5069777;28;20491;-75
2022/06/08 04:16:28;;;;;;;3.57;3.27;;;;;;;10.67;100.00;96047.78;5069725;28;20502;-77
2022/06/08 04:18:58;;;;;;;3.87;3.50;;;;;;;10.64;100.00;96029.97;5069787;28;20472;-77
2022/06/08 04:21:29;;;;;;;3.80;3.50;;;;;;;10.62;100.00;96034.81;5087812;28;20780;-75
2022/06/08 04:24:01;;;;;;;4.00;3.60;;;;;;;10.51;100.00;95991.44;5069731;28;20457;-76
2022/06/08 04:26:29;;;;;;;3.50;2.90;;;;;;;10.61;100.00;96026.09;5072259;28;20433;-76
2022/06/08 04:29:03;;;;;;;4.10;3.20;;;;;;;11.11;100.00;96043.41;5079288;28;20463;-76
2022/06/08 04:31:33;;;;;;;3.53;3.23;;;;;;;10.89;100.00;96004.22;5069515;28;20494;-76
2022/06/08 04:34:09;;;;;;;4.23;3.63;;;;;;;11.35;100.00;96028.50;5069621;28;20460;-75
2022/06/08 04:36:37;;;;;;;4.20;3.43;;;;;;;11.75;100.00;96045.09;5069353;28;20520;-75
2022/06/08 04:39:07;;;;;;;3.50;3.30;;;;;;;11.96;100.00;96049.41;5069383;28;20439;-76
2022/06/08 04:41:37;;;;;;;3.93;3.47;;;;;;;12.01;100.00;96049.16;5056144;28;20459;-76
2022/06/08 04:44:04;;;;;;;4.30;3.90;;;;;;;11.81;100.00;96035.81;5070186;28;20874;-78
2022/06/08 04:46:32;;;;;;;4.37;3.27;;;;;;;11.69;100.00;96027.91;5069834;28;20853;-77
2022/06/08 04:49:02;;;;;;;5.27;3.77;;;;;;;11.82;100.00;96042.66;5053409;28;20472;-77
2022/06/08 04:51:30;;;;;;;6.07;4.20;;;;;;;12.16;100.00;96043.09;5078529;28;20518;-78
2022/06/08 04:53:58;;;;;;;4.27;3.97;;;;;;;12.27;100.00;96044.09;5073351;28;20531;-77
2022/06/08 04:56:26;;;;;;;4.00;3.47;;;;;;;12.22;100.00;95999.31;5073726;28;20467;-77
2022/06/08 04:58:55;;;;;;;4.00;3.47;;;;;;;12.59;100.00;96026.25;5074454;28;20490;-78
2022/06/08 05:01:25;;;;;;;4.10;3.70;;;;;;;12.57;100.00;95995.91;5070357;28;20805;-78
2022/06/08 05:03:53;;;;;;;4.47;4.07;;;;;;;12.98;100.00;96036.94;5069881;28;20522;-78
2022/06/08 05:06:20;;;;;;;4.10;3.70;;;;;;;13.20;100.00;96032.84;5069801;28;20424;-78
2022/06/08 05:08:48;;;;;;;4.27;3.97;;;;;;;13.10;100.00;96017.47;5053054;28;20502;-78
2022/06/08 05:11:20;;;;;;;3.63;3.33;;;;;;;13.30;100.00;96016.34;5053456;28;20441;-77
2022/06/08 05:13:47;;;;;;;4.13;3.83;;;;;;;13.69;100.00;96040.19;5069937;28;21011;-77
2022/06/08 05:16:15;;;;;;;4.10;3.70;;;;;;;13.55;100.00;96001.63;5053562;28;20921;-77
2022/06/08 05:18:46;;;;;;;6.80;3.97;;;;;;;13.88;100.00;96030.28;5073006;28;20473;-76
2022/06/08 05:21:17;;;;;;;4.17;3.80;;;;;;;13.64;100.00;96003.31;5073487;28;20444;-75
2022/06/08 05:23:46;;;;;;;4.53;3.73;;;;;;;14.08;100.00;96025.69;5072641;28;20831;-75
2022/06/08 05:26:17;;;;;;;3.90;3.43;;;;;;;14.14;100.00;96023.47;5072742;28;20944;-75
2022/06/08 05:28:46;;;;;;;3.67;3.37;;;;;;;14.34;100.00;96042.78;5072673;28;20447;-75
2022/06/08 05:31:13;;;;;;;9.70;3.60;;;;;;;14.23;100.00;96039.19;5072563;28;20445;-75
2022/06/08 05:33:43;;;;;;;4.40;3.70;;;;;;;14.15;100.00;96003.75;5056573;28;20463;-76
2022/06/08 05:36:16;;;;;;;3.80;3.50;;;;;;;14.11;100.00;96022.31;5074129;28;20991;-76
2022/06/08 05:38:46;;;;;;;3.73;3.37;;;;;;;14.09;100.00;96023.78;5056313;28;20490;-76
2022/06/08 05:41:13;;;;;;;3.23;3.03;;;;;;;14.29;100.00;96045.72;5060365;28;20454;-76
2022/06/08 05:43:39;;;;;;;5.10;3.00;;;;;;;14.23;100.00;96012.59;5064779;28;20984;-76
2022/06/08 05:46:08;;;;;;;3.13;2.83;;;;;;;14.47;100.00;96044.16;5072428;28;20450;-76
2022/06/08 05:48:37;;;;;;;3.60;3.40;;;;;;;14.63;100.00;96052.75;5072357;28;20452;-76
2022/06/08 05:51:05;;;;;;;4.03;3.33;;;;;;;14.60;100.00;96010.91;5069347;28;20962;-77
2022/06/08 05:53:33;;;;;;;3.23;3.03;;;;;;;14.46;100.00;96022.13;5089103;28;20472;-76
2022/06/08 05:56:01;;;;;;;3.03;2.83;;;;;;;15.02;100.00;96036.53;5085780;28;20853;-77
2022/06/08 05:58:31;;;;;;;3.87;3.57;;;;;;;15.34;100.00;96024.34;5089190;28;20948;-76
2022/06/08 06:00:58;;;;;;;3.80;3.50;;;;;;;15.85;100.00;96054.97;5059597;28;20915;-77
2022/06/08 06:03:26;;;;;;;3.50;3.20;;;;;;;15.99;100.00;96038.34;5072357;28;20553;-76
2022/06/08 06:05:53;;;;;;;12.77;4.67;;;;;;;16.13;100.00;96009.88;5085182;28;20444;-76
2022/06/08 06:08:21;;;;;;;12.80;3.63;;;;;;;16.86;100.00;96051.97;5072762;28;20479;-76
2022/06/08 06:10:53;;;;;;;3.73;3.43;;;;;;;16.43;100.00;96023.09;5083948;28;20465;-77
2022/06/08 06:13:28;;;;;;;4.37;3.40;;;;;;;16.43;100.00;96035.66;5072111;28;20475;-77
2022/06/08 06:15:57;;;;;;;3.13;2.93;;;;;;;16.20;100.00;96025.19;5072098;28;20531;-77
2022/06/08 06:18:26;;;;;;;2.57;2.30;;;;;;;16.28;100.00;96042.78;5075310;28;20436;-76
2022/06/08 06:21:16;;;;;;;2.57;2.37;;;;;;;16.27;100.00;96049.25;5059581;28;20483;-77
2022/06/08 06:23:47;;;;;;;4.40;2.47;;;;;;;16.11;100.00;95996.16;5059270;28;20461;-77
2022/06/08 06:26:34;;;;;;;4.77;2.97;;;;;;;16.21;100.00;96021.41;5055441;28;20472;-77
2022/06/08 06:29:24;;;;;;;2.90;2.70;;;;;;;16.32;100.00;96018.81;5070993;28;20472;-77
2022/06/08 06:32:04;;;;;;;3.40;2.27;;;;;;;16.35;100.00;96034.84;5071889;28;20470;-76
2022/06/08 06:34:47;;;;;;;5.30;2.70;;;;;;;15.98;100.00;95996.81;5057135;28;20979;-76
2022/06/08 06:37:14;;;;;;;3.80;2.73;;;;;;;16.04;100.00;96017.47;5071576;28;20440;-77
2022/06/08 06:39:41;;;;;;;4.33;2.47;;;;;;;16.75;100.00;96017.19;5071479;28;20558;-76
2022/06/08 06:42:23;;;;;;;2.57;2.37;;;;;;;17.82;100.00;96042.41;5071473;28;20443;-77
2022/06/08 06:45:08;;;;;;;2.47;2.30;;;;;;;17.77;100.00;96008.03;5061555;28;20437;-77
2022/06/08 06:47:41;;;;;;;3.77;2.43;;;;;;;17.91;100.00;96002.69;5055473;28;20531;-76
2022/06/08 06:50:25;;;;;;;2.67;2.47;;;;;;;17.85;100.00;96038.97;5072802;28;20456;-76
2022/06/08 06:52:53;;;;;;;3.40;2.30;;;;;;;18.15;100.00;95992.38;5065815;28;20566;-76
2022/06/08 06:55:27;;;;;;;3.10;2.77;;;;;;;18.66;100.00;96034.03;5077529;28;20443;-76
2022/06/08 06:57:58;;;;;;;1.97;1.87;;;;;;;18.54;100.00;96013.75;5066326;28;20489;-76
2022/06/08 07:00:30;;;;;;;5.10;2.27;;;;;;;18.70;100.00;96027.53;5071159;28;20425;-77
2022/06/08 07:03:00;;;;;;;2.50;1.90;;;;;;;18.59;100.00;96032.88;5070798;28;20464;-76
2022/06/08 07:05:34;;;;;;;2.90;2.40;;;;;;;18.51;100.00;96028.66;5087878;28;20887;-76
2022/06/08 07:08:04;;;;;;;2.23;2.03;;;;;;;18.26;100.00;96038.63;5070845;28;20444;-77
2022/06/08 07:10:31;;;;;;;6.40;3.00;;;;;;;18.46;100.00;96026.38;5070613;28;20464;-76
2022/06/08 07:12:59;;;;;;;2.50;2.30;;;;;;;18.75;100.00;95994.97;5070487;28;20495;-76
2022/06/08 07:15:26;;;;;;;3.63;2.50;;;;;;;18.74;100.00;96020.25;5071228;28;20433;-76
2022/06/08 07:17:54;;;;;;;1.83;1.73;;;;;;;18.98;100.00;96009.84;5070778;28;20894;-77
2022/06/08 07:20:24;;;;;;;2.67;1.87;;;;;;;18.61;100.00;96005.72;5076771;28;20435;-76
2022/06/08 07:22:52;;;;;;;2.30;1.90;;;;;;;18.34;100.00;96002.69;5076516;28;20472;-77
2022/06/08 07:25:19;;;;;;;11.73;2.63;;;;;;;18.73;100.00;95999.22;5071895;28;20485;-76
2022/06/08 07:27:47;;;;;;;2.20;1.97;;;;;;;19.61;100.00;96026.81;5053825;28;20523;-76
2022/06/08 07:30:14;;;;;;;4.17;3.77;;;;;;;19.52;100.00;96021.88;5053892;28;20526;-77
2022/06/08 07:32:41;;;;;;;5.90;1.77;;;;;;;19.83;100.00;96008.66;5071620;28;20425;-77
2022/06/08 07:35:09;;;;;;;2.73;2.17;;;;;;;18.75;100.00;96005.69;5070314;28;20494;-76
2022/06/08 07:37:36;;;;;;;3.87;2.43;;;;;;;18.30;100.00;96020.66;5071681;28;20469;-76
2022/06/08 07:40:03;;;;;;;3.60;2.10;;;;;;;17.80;100.00;96009.19;5069512;28;20445;-76
2022/06/08 07:42:30;;;;;;;2.23;1.83;;;;;;;17.44;100.00;95985.78;5070170;28;20490;-76
2022/06/08 07:44:57;;;;;;;4.33;1.97;;;;;;;17.93;100.00;95987.03;5053918;28;20445;-76
2022/06/08 07:47:23;;;;;;;2.33;2.13;;;;;;;18.46;100.00;95994.25;5070340;28;20456;-76
2022/06/08 07:49:51;;;;;;;3.33;2.20;;;;;;;19.04;100.00;95979.56;5070446;28;20465;-77
2022/06/08 07:52:20;;;;;;;2.90;2.00;;;;;;;19.82;100.00;95999.84;5070327;28;20764;-77
2022/06/08 07:54:48;;;;;;;2.27;2.07;;;;;;;20.14;100.00;95982.75;5069998;28;20496;-76
2022/06/08 07:57:25;;;;;;;1.97;1.83;;;;;;;20.79;100.00;95992.50;5071462;28;20466;-76
2022/06/08 07:59:53;;;;;;;1.63;1.50;;;;;;;20.11;100.00;95995.03;5070009;28;20497;-77
2022/06/08 08:02:20;;;;;;;3.90;1.53;;;;;;;19.13;100.00;95976.47;5083266;28;20429;-76
2022/06/08 08:04:47;;;;;;;5.63;2.20;;;;;;;20.08;100.00;95950.97;5070160;28;20972;-76
2022/06/08 08:07:16;;;;;;;2.40;2.17;;;;;;;20.93;96.48;95991.56;5083564;28;20440;-76
2022/06/08 08:09:43;;;;;;;2.40;1.83;;;;;;;21.03;97.02;96003.38;5081261;28;20468;-76
2022/06/08 08:12:12;;;;;;;2.10;1.90;;;;;;;21.87;96.20;95989.97;5076662;28;20450;-77
2022/06/08 08:14:39;;;;;;;3.03;2.03;;;;;;;20.67;89.72;95928.53;5060471;28;20475;-77
2022/06/08 08:17:06;;;;;;;2.47;2.27;;;;;;;20.92;88.72;95992.75;5089664;28;20432;-76
2022/06/08 08:19:33;;;;;;;3.00;1.83;;;;;;;20.22;94.82;95954.69;5077422;28;20448;-76
2022/06/08 08:22:01;;;;;;;6.87;2.27;;;;;;;20.70;95.68;95961.88;5076320;28;20446;-76
2022/06/08 08:24:27;;;;;;;5.93;2.20;;;;;;;20.91;95.34;95969.72;5077018;28;20444;-76
2022/06/08 08:26:56;;;;;;;8.53;3.37;;;;;;;21.19;88.10;95993.56;5083479;28;20539;-76
2022/06/08 08:29:23;;;;;;;4.27;2.10;;;;;;;20.94;83.76;95972.34;5069829;28;20432;-76
2022/06/08 08:31:50;;;;;;;2.90;1.80;;;;;;;20.67;86.52;95963.47;5082726;28;20424;-76
2022/06/08 08:34:17;;;;;;;3.17;1.90;;;;;;;20.88;88.49;95952.47;5092595;28;20460;-76
2022/06/08 08:36:45;;;;;;;3.33;1.70;;;;;;;21.01;83.62;95982.28;5085994;28;20456;-76
2022/06/08 08:39:12;;;;;;;4.17;1.47;;;;;;;20.54;87.36;95975.88;5100206;28;20453;-76
2022/06/08 08:44:46;;;;;;;1.73;1.60;;;;;;;22.14;77.29;95989.97;5087867;28;20484;-77
2022/06/08 08:47:13;;;;;;;2.10;1.83;;;;;;;21.91;77.26;95981.88;5087602;28;20424;-76
2022/06/08 08:49:49;;;;;;;1.93;1.70;;;;;;;21.04;81.88;95941.13;5088556;28;20454;-77
2022/06/08 08:52:29;;;;;;;7.77;1.90;;;;;;;20.83;82.22;95949.44;5105305;28;20416;-76
2022/06/08 08:55:01;;;;;;;2.27;1.60;;;;;;;21.01;82.56;95951.94;5091051;28;20428;-77
2022/06/08 08:57:31;;;;;;;2.90;2.20;;;;;;;21.46;82.61;95961.34;5091524;28;20519;-77
2022/06/08 08:59:58;;;;;;;5.33;2.03;;;;;;;22.23;75.70;95940.97;5090623;28;20444;-76
2022/06/08 09:05:20;;;;;;;1.77;1.47;;;;;;;21.49;75.36;95957.09;5090326;28;20773;-77
2022/06/08 09:07:48;;;;;;;1.83;1.37;;;;;;;20.80;74.26;95918.78;5086289;28;20489;-76
2022/06/08 09:10:18;;;;;;;1.73;1.63;;;;;;;20.58;73.54;95936.31;5081180;28;20465;-76
2022/06/08 09:12:46;;;;;;;1.63;1.53;;;;;;;20.39;74.87;95937.63;5083099;28;20456;-76
2022/06/08 09:15:16;;;;;;;1.70;1.60;;;;;;;20.36;75.65;95951.84;5086646;28;20523;-76
2022/06/08 09:17:56;;;;;;;2.37;1.63;;;;;;;19.54;74.55;95917.63;5074501;28;20463;-76
2022/06/08 09:20:29;;;;;;;2.47;1.43;;;;;;;19.32;74.25;95951.84;5062701;28;20526;-77
2022/06/08 09:23:01;;;;;;;2.50;1.83;;;;;;;19.32;76.70;95935.78;5079272;28;20546;-76
2022/06/08 09:25:38;;;;;;;4.30;2.00;;;;;;;19.05;78.68;95867.78;5081269;28;20959;-76
2022/06/08 09:28:26;;;;;;;6.93;1.57;;;;;;;19.90;78.06;95894.00;5079694;28;20450;-76
2022/06/08 09:30:53;;;;;;;1.53;1.43;;;;;;;20.83;76.81;95909.13;5080247;28;20492;-76
2022/06/08 09:33:32;;;;;;;2.17;2.07;;;;;;;21.41;75.71;95937.59;5086384;28;20456;-76
2022/06/08 09:36:06;;;;;;;2.90;1.97;;;;;;;20.56;75.51;95927.88;5074308;28;20447;-75
2022/06/08 09:38:39;;;;;;;4.50;1.73;;;;;;;21.35;77.04;95928.44;5085178;28;20424;-76
2022/06/08 09:41:24;;;;;;;6.90;2.60;;;;;;;21.39;75.25;95933.81;5086416;28;20878;-76
2022/06/08 09:44:26;;;;;;;2.20;1.90;;;;;;;21.48;77.03;95928.66;5086716;28;20902;-76
2022/06/08 09:53:40;;;;;;;3.23;1.63;;;;;;;20.64;78.04;95916.66;5070453;28;20532;-76
2022/06/08 09:56:24;;;;;;;1.53;1.43;;;;;;;21.56;77.87;95907.81;5062528;28;20547;-76
2022/06/08 09:58:59;;;;;;;1.80;1.53;;;;;;;21.19;74.78;95893.31;5079094;28;20835;-76
2022/06/08 10:01:36;;;;;;;3.00;1.97;;;;;;;20.80;74.77;95867.72;5082980;28;20440;-77
2022/06/08 10:04:18;;;;;;;3.83;1.40;;;;;;;20.47;75.85;95896.16;5071245;28;20988;-77
2022/06/08 10:07:07;;;;;;;2.37;1.40;;;;;;;20.29;76.53;95895.53;5086711;28;20455;-77
2022/06/08 10:09:55;;;;;;;3.57;1.70;;;;;;;20.35;77.99;95883.97;5070949;28;20446;-77
2022/06/08 10:12:40;;;;;;;1.87;1.77;;;;;;;20.68;77.49;95887.06;5078941;28;20490;-77
2022/06/08 10:15:23;;;;;;;3.27;1.73;;;;;;;21.51;76.46;95882.88;5077737;28;20919;-77
2022/06/08 10:18:24;;;;;;;3.50;1.60;;;;;;;21.49;73.83;95874.44;5072171;28;20441;-77
2022/06/08 10:21:05;;;;;;;3.87;1.50;;;;;;;21.83;73.04;95876.97;5061453;28;20438;-76
2022/06/08 10:23:57;;;;;;;2.23;1.60;;;;;;;22.15;71.77;95875.69;5042557;28;20503;-77
2022/06/08 10:26:29;;;;;;;2.60;1.77;;;;;;;21.79;71.38;95870.91;5085505;28;20485;-77
2022/06/08 10:29:21;;;;;;;3.50;2.10;;;;;;;22.17;71.07;95864.50;5081848;28;20508;-77
2022/06/08 10:31:55;;;;;;;1.50;1.40;;;;;;;22.31;70.37;95869.63;5072128;28;20543;-77
2022/06/08 10:34:24;;;;;;;4.07;1.50;;;;;;;22.48;68.62;95867.78;5085271;28;20959;-77
2022/06/08 10:36:58;;;;;;;1.80;1.40;;;;;;;23.01;66.69;95872.09;5080221;28;20455;-76
2022/06/08 10:39:27;;;;;;;4.03;1.67;;;;;;;23.18;63.48;95849.34;5079692;28;20420;-77
2022/06/08 10:45:27;;;;;;;2.60;1.60;;;;;;;23.94;63.85;95854.50;5071326;28;20427;-77
2022/06/08 10:47:55;;;;;;;2.87;2.10;;;;;;;24.25;63.26;95851.38;5078369;28;20775;-77
2022/06/08 10:50:30;;;;;;;1.67;1.57;;;;;;;23.94;61.11;95873.41;5078978;28;20460;-77
2022/06/08 10:55:46;;;;;;;2.30;1.60;;;;;;;23.21;63.55;95845.06;5084976;28;20440;-77
2022/06/08 10:58:15;;;;;;;5.10;2.00;;;;;;;23.23;64.01;95784.09;5065176;28;20967;-76
2022/06/08 11:01:21;;;;;;;2.70;1.70;;;;;;;23.98;62.04;95843.59;5057270;28;20466;-77
2022/06/08 11:03:51;;;;;;;4.03;1.57;;;;;;;24.08;61.17;95847.97;5074105;28;20463;-77
2022/06/08 11:06:58;;;;;;;2.07;1.30;;;;;;;23.57;60.26;95840.38;5081976;28;20421;-77
2022/06/08 11:09:33;;;;;;;2.77;1.37;;;;;;;22.97;60.57;95836.34;5059097;28;20525;-77
2022/06/08 11:12:13;;;;;;;1.97;1.77;;;;;;;23.00;60.68;95838.22;5077305;28;20917;-76
2022/06/08 11:14:43;;;;;;;4.33;2.10;;;;;;;23.31;61.28;95830.56;5058243;28;20465;-76
2022/06/08 11:17:20;;;;;;;1.73;1.20;;;;;;;22.85;59.77;95775.75;5077067;28;20523;-76
2022/06/08 11:19:47;;;;;;;2.37;1.57;;;;;;;23.06;55.61;95844.63;5057928;28;20429;-77
2022/06/08 11:22:32;;;;;;;4.50;1.50;;;;;;;23.21;53.32;95808.03;5084334;28;20512;-76
2022/06/08 11:25:03;;;;;;;1.83;1.20;;;;;;;22.52;52.76;95826.09;5072129;28;20881;-77
2022/06/08 11:27:39;;;;;;;1.20;1.10;;;;;;;22.25;54.32;95803.94;5081803;28;20781;-77
2022/06/08 11:30:21;;;;;;;1.90;1.40;;;;;;;23.11;54.90;95829.88;5071821;28;20482;-76
2022/06/08 11:32:50;;;;;;;1.40;1.30;;;;;;;22.95;56.42;95817.13;5087311;28;20471;-76
2022/06/08 11:35:41;;;;;;;3.47;1.23;;;;;;;23.48;55.40;95821.28;5098453;28;20483;-77
2022/06/08 11:38:17;;;;;;;2.10;1.60;;;;;;;23.97;54.95;95829.34;5084908;28;20433;-77
2022/06/08 11:40:45;;;;;;;3.10;1.80;;;;;;;24.26;55.19;95788.81;5096677;28;20435;-77
2022/06/08 11:43:18;;;;;;;1.87;1.40;;;;;;;25.08;54.96;95821.63;5090434;28;20907;-77
2022/06/08 11:45:53;;;;;;;3.03;1.30;;;;;;;24.30;54.34;95764.41;5091483;28;20452;-77
2022/06/08 11:48:43;;;;;;;3.33;2.53;;;;;;;24.44;54.74;95807.28;5083694;28;20454;-77
2022/06/08 11:51:26;;;;;;;3.20;2.07;;;;;;;23.81;54.43;95759.94;5084745;28;20498;-77
2022/06/08 11:53:53;;;;;;;5.27;1.73;;;;;;;23.44;53.91;95795.56;5099223;28;20439;-77
2022/06/08 11:56:28;;;;;;;1.70;1.40;;;;;;;23.30;53.70;95794.72;5084841;28;20424;-77
2022/06/08 11:59:00;;;;;;;3.03;1.23;;;;;;;23.53;53.85;95793.03;5095367;28;20450;-76
2022/06/08 12:01:42;;;;;;;2.00;1.20;;;;;;;22.97;54.21;95758.91;5081264;28;20428;-76
2022/06/08 12:04:17;;;;;;;3.63;1.60;;;;;;;22.88;54.94;95780.31;5071568;28;20479;-77
2022/06/08 12:06:44;;;;;;;2.07;1.83;;;;;;;22.76;56.11;95783.63;5083566;28;20436;-77
2022/06/08 12:09:20;;;;;;;2.30;1.47;;;;;;;22.85;55.18;95767.66;5076642;28;20436;-76
2022/06/08 12:12:13;;;;;;;15.33;2.13;;;;;;;23.98;55.25;95781.47;5057311;28;20518;-77
2022/06/08 12:14:41;;;;;;;2.63;1.63;;;;;;;23.43;54.88;95746.22;5068935;28;20464;-76
2022/06/08 12:17:17;;;;;;;1.73;1.63;;;;;;;23.20;55.86;95768.00;5059866;28;20485;-77